sensor_id;sensor_type;location;lat;lon;timestamp;P1;durP1;ratioP1;P2;durP2;ratioP2
17482;SDS011;8858;52.308;20.994;2024-02-21T00:00:46;13.83;;;4.80;;
17482;SDS011;8858;52.308;20.994;2024-02-21T00:03:15;13.07;;;4.80;;
17482;SDS011;8858;52.308;20.994;2024-02-21T00:05:44;8.00;;;4.30;;
17482;SDS011;8858;52.308;20.994;2024-02-21T00:08:12;11.83;;;5.00;;
17482;SDS011;8858;52.308;20.994;2024-02-21T00:10:45;11.90;;;4.73;;
17482;SDS011;8858;52.308;20.994;2024-02-21T00:13:15;12.83;;;4.47;;
17482;SDS011;8858;52.308;20.994;2024-02-21T00:15:43;8.70;;;3.80;;
17482;SDS011;8858;52.308;20.994;2024-02-21T00:18:11;11.57;;;4.03;;
17482;SDS011;8858;52.308;20.994;2024-02-21T00:20:40;10.80;;;4.80;;
17482;SDS011;8858;52.308;20.994;2024-02-21T00:23:12;10.10;;;4.40;;
17482;SDS011;8858;52.308;20.994;2024-02-21T00:25:40;13.33;;;4.97;;
17482;SDS011;8858;52.308;20.994;2024-02-21T00:28:10;10.40;;;4.47;;
17482;SDS011;8858;52.308;20.994;2024-02-21T00:30:40;10.40;;;4.43;;
17482;SDS011;8858;52.308;20.994;2024-02-21T00:33:09;9.00;;;4.17;;
17482;SDS011;8858;52.308;20.994;2024-02-21T00:35:41;15.77;;;5.60;;
17482;SDS011;8858;52.308;20.994;2024-02-21T00:38:09;12.37;;;5.07;;
17482;SDS011;8858;52.308;20.994;2024-02-21T00:40:38;9.27;;;4.50;;
17482;SDS011;8858;52.308;20.994;2024-02-21T00:43:07;11.47;;;4.80;;
17482;SDS011;8858;52.308;20.994;2024-02-21T00:45:37;9.73;;;4.03;;
17482;SDS011;8858;52.308;20.994;2024-02-21T00:48:10;11.23;;;4.40;;
17482;SDS011;8858;52.308;20.994;2024-02-21T00:50:38;12.83;;;4.80;;
17482;SDS011;8858;52.308;20.994;2024-02-21T00:53:07;11.33;;;4.33;;
17482;SDS011;8858;52.308;20.994;2024-02-21T00:55:36;9.43;;;4.50;;
17482;SDS011;8858;52.308;20.994;2024-02-21T00:58:05;13.27;;;5.13;;
17482;SDS011;8858;52.308;20.994;2024-02-21T01:00:40;12.93;;;5.60;;
17482;SDS011;8858;52.308;20.994;2024-02-21T01:03:08;11.87;;;4.53;;
17482;SDS011;8858;52.308;20.994;2024-02-21T01:05:37;11.10;;;4.97;;
17482;SDS011;8858;52.308;20.994;2024-02-21T01:08:05;11.63;;;4.97;;
17482;SDS011;8858;52.308;20.994;2024-02-21T01:10:34;11.83;;;5.13;;
17482;SDS011;8858;52.308;20.994;2024-02-21T01:13:06;11.13;;;5.00;;
17482;SDS011;8858;52.308;20.994;2024-02-21T01:15:34;13.37;;;5.27;;
17482;SDS011;8858;52.308;20.994;2024-02-21T01:18:05;11.27;;;4.60;;
17482;SDS011;8858;52.308;20.994;2024-02-21T01:20:34;18.33;;;5.87;;
17482;SDS011;8858;52.308;20.994;2024-02-21T01:23:02;12.97;;;5.53;;
17482;SDS011;8858;52.308;20.994;2024-02-21T01:25:34;19.07;;;6.90;;
17482;SDS011;8858;52.308;20.994;2024-02-21T01:28:03;11.33;;;5.40;;
17482;SDS011;8858;52.308;20.994;2024-02-21T01:30:32;8.77;;;5.20;;
17482;SDS011;8858;52.308;20.994;2024-02-21T01:33:01;13.77;;;5.33;;
17482;SDS011;8858;52.308;20.994;2024-02-21T01:35:31;12.63;;;5.20;;
17482;SDS011;8858;52.308;20.994;2024-02-21T01:38:00;17.30;;;5.37;;
17482;SDS011;8858;52.308;20.994;2024-02-21T01:40:29;8.80;;;5.30;;
17482;SDS011;8858;52.308;20.994;2024-02-21T01:42:58;12.97;;;5.50;;
17482;SDS011;8858;52.308;20.994;2024-02-21T01:45:28;14.73;;;6.33;;
17482;SDS011;8858;52.308;20.994;2024-02-21T01:47:56;14.73;;;5.63;;
17482;SDS011;8858;52.308;20.994;2024-02-21T01:50:25;13.40;;;6.07;;
17482;SDS011;8858;52.308;20.994;2024-02-21T01:52:55;11.27;;;5.97;;
17482;SDS011;8858;52.308;20.994;2024-02-21T01:55:24;12.23;;;6.33;;
17482;SDS011;8858;52.308;20.994;2024-02-21T01:57:55;12.27;;;7.00;;
17482;SDS011;8858;52.308;20.994;2024-02-21T02:00:24;13.87;;;7.77;;
17482;SDS011;8858;52.308;20.994;2024-02-21T02:02:52;15.17;;;7.83;;
17482;SDS011;8858;52.308;20.994;2024-02-21T02:08:45;12.67;;;7.17;;
17482;SDS011;8858;52.308;20.994;2024-02-21T02:11:25;14.40;;;7.50;;
17482;SDS011;8858;52.308;20.994;2024-02-21T02:14:32;15.87;;;7.70;;
17482;SDS011;8858;52.308;20.994;2024-02-21T02:17:02;15.17;;;7.23;;
17482;SDS011;8858;52.308;20.994;2024-02-21T02:19:31;13.97;;;7.00;;
17482;SDS011;8858;52.308;20.994;2024-02-21T02:22:04;15.10;;;7.17;;
17482;SDS011;8858;52.308;20.994;2024-02-21T02:24:39;15.30;;;7.27;;
17482;SDS011;8858;52.308;20.994;2024-02-21T02:27:07;12.80;;;7.23;;
17482;SDS011;8858;52.308;20.994;2024-02-21T02:29:36;15.47;;;7.60;;
17482;SDS011;8858;52.308;20.994;2024-02-21T02:32:08;14.73;;;7.33;;
17482;SDS011;8858;52.308;20.994;2024-02-21T02:34:37;14.57;;;7.47;;
17482;SDS011;8858;52.308;20.994;2024-02-21T02:37:06;16.20;;;7.80;;
17482;SDS011;8858;52.308;20.994;2024-02-21T02:39:35;13.83;;;7.03;;
17482;SDS011;8858;52.308;20.994;2024-02-21T02:42:06;15.63;;;7.87;;
17482;SDS011;8858;52.308;20.994;2024-02-21T02:44:36;17.50;;;7.87;;
17482;SDS011;8858;52.308;20.994;2024-02-21T02:47:05;11.40;;;7.70;;
17482;SDS011;8858;52.308;20.994;2024-02-21T02:49:34;12.20;;;7.33;;
17482;SDS011;8858;52.308;20.994;2024-02-21T02:52:04;17.27;;;7.93;;
17482;SDS011;8858;52.308;20.994;2024-02-21T02:54:32;15.77;;;7.73;;
17482;SDS011;8858;52.308;20.994;2024-02-21T02:57:05;13.87;;;7.97;;
17482;SDS011;8858;52.308;20.994;2024-02-21T02:59:34;14.97;;;7.63;;
17482;SDS011;8858;52.308;20.994;2024-02-21T03:02:03;14.33;;;7.80;;
17482;SDS011;8858;52.308;20.994;2024-02-21T03:04:32;14.70;;;8.07;;
17482;SDS011;8858;52.308;20.994;2024-02-21T03:07:01;16.57;;;8.43;;
17482;SDS011;8858;52.308;20.994;2024-02-21T03:09:29;15.13;;;8.30;;
17482;SDS011;8858;52.308;20.994;2024-02-21T03:11:57;16.00;;;8.37;;
17482;SDS011;8858;52.308;20.994;2024-02-21T03:14:31;16.63;;;8.23;;
17482;SDS011;8858;52.308;20.994;2024-02-21T03:16:59;14.00;;;8.10;;
17482;SDS011;8858;52.308;20.994;2024-02-21T03:19:28;15.47;;;8.33;;
17482;SDS011;8858;52.308;20.994;2024-02-21T03:22:00;17.27;;;9.27;;
17482;SDS011;8858;52.308;20.994;2024-02-21T03:24:30;14.73;;;8.93;;
17482;SDS011;8858;52.308;20.994;2024-02-21T03:26:59;16.37;;;8.20;;
17482;SDS011;8858;52.308;20.994;2024-02-21T03:29:28;14.17;;;8.83;;
17482;SDS011;8858;52.308;20.994;2024-02-21T03:31:58;16.70;;;8.40;;
17482;SDS011;8858;52.308;20.994;2024-02-21T03:34:28;13.97;;;8.20;;
17482;SDS011;8858;52.308;20.994;2024-02-21T03:36:57;17.67;;;8.23;;
17482;SDS011;8858;52.308;20.994;2024-02-21T03:39:26;12.80;;;7.63;;
17482;SDS011;8858;52.308;20.994;2024-02-21T03:41:55;15.57;;;7.83;;
17482;SDS011;8858;52.308;20.994;2024-02-21T03:44:24;11.57;;;7.83;;
17482;SDS011;8858;52.308;20.994;2024-02-21T03:46:55;14.70;;;8.03;;
17482;SDS011;8858;52.308;20.994;2024-02-21T03:49:23;17.60;;;8.30;;
17482;SDS011;8858;52.308;20.994;2024-02-21T03:51:54;12.90;;;7.40;;
17482;SDS011;8858;52.308;20.994;2024-02-21T03:54:22;14.47;;;7.03;;
17482;SDS011;8858;52.308;20.994;2024-02-21T03:56:51;12.73;;;7.27;;
17482;SDS011;8858;52.308;20.994;2024-02-21T03:59:20;14.87;;;6.90;;
17482;SDS011;8858;52.308;20.994;2024-02-21T04:01:51;12.30;;;6.80;;
17482;SDS011;8858;52.308;20.994;2024-02-21T04:04:23;16.67;;;7.57;;
17482;SDS011;8858;52.308;20.994;2024-02-21T04:06:52;15.53;;;7.70;;
17482;SDS011;8858;52.308;20.994;2024-02-21T04:09:20;14.07;;;7.80;;
17482;SDS011;8858;52.308;20.994;2024-02-21T04:11:48;14.83;;;7.40;;
17482;SDS011;8858;52.308;20.994;2024-02-21T04:14:17;15.23;;;8.57;;
17482;SDS011;8858;52.308;20.994;2024-02-21T04:16:49;16.20;;;8.37;;
17482;SDS011;8858;52.308;20.994;2024-02-21T04:19:18;17.93;;;8.50;;
17482;SDS011;8858;52.308;20.994;2024-02-21T04:21:48;15.60;;;8.17;;
17482;SDS011;8858;52.308;20.994;2024-02-21T04:24:16;16.33;;;7.83;;
17482;SDS011;8858;52.308;20.994;2024-02-21T04:26:45;13.97;;;7.73;;
17482;SDS011;8858;52.308;20.994;2024-02-21T04:29:17;17.33;;;7.97;;
17482;SDS011;8858;52.308;20.994;2024-02-21T04:31:45;14.27;;;7.90;;
17482;SDS011;8858;52.308;20.994;2024-02-21T04:34:14;13.90;;;7.87;;
17482;SDS011;8858;52.308;20.994;2024-02-21T04:36:42;13.37;;;8.83;;
17482;SDS011;8858;52.308;20.994;2024-02-21T04:39:13;13.63;;;8.27;;
17482;SDS011;8858;52.308;20.994;2024-02-21T04:41:43;13.13;;;8.47;;
17482;SDS011;8858;52.308;20.994;2024-02-21T04:44:11;16.63;;;9.47;;
17482;SDS011;8858;52.308;20.994;2024-02-21T04:46:41;16.00;;;9.17;;
17482;SDS011;8858;52.308;20.994;2024-02-21T04:49:10;18.93;;;10.00;;
17482;SDS011;8858;52.308;20.994;2024-02-21T04:51:40;17.60;;;9.97;;
17482;SDS011;8858;52.308;20.994;2024-02-21T04:54:09;15.83;;;9.80;;
17482;SDS011;8858;52.308;20.994;2024-02-21T04:56:44;18.43;;;9.67;;
17482;SDS011;8858;52.308;20.994;2024-02-21T04:59:27;20.70;;;10.17;;
17482;SDS011;8858;52.308;20.994;2024-02-21T05:02:02;19.93;;;10.20;;
17482;SDS011;8858;52.308;20.994;2024-02-21T05:04:37;18.03;;;10.43;;
17482;SDS011;8858;52.308;20.994;2024-02-21T05:07:09;19.93;;;10.50;;
17482;SDS011;8858;52.308;20.994;2024-02-21T05:09:39;17.03;;;10.50;;
17482;SDS011;8858;52.308;20.994;2024-02-21T05:12:11;17.77;;;10.67;;
17482;SDS011;8858;52.308;20.994;2024-02-21T05:14:39;20.73;;;10.77;;
17482;SDS011;8858;52.308;20.994;2024-02-21T05:17:08;20.60;;;10.73;;
17482;SDS011;8858;52.308;20.994;2024-02-21T05:19:39;21.97;;;11.93;;
17482;SDS011;8858;52.308;20.994;2024-02-21T05:22:07;23.83;;;12.07;;
17482;SDS011;8858;52.308;20.994;2024-02-21T05:24:35;21.30;;;11.23;;
17482;SDS011;8858;52.308;20.994;2024-02-21T05:27:04;25.13;;;10.87;;
17482;SDS011;8858;52.308;20.994;2024-02-21T05:29:34;18.67;;;11.27;;
17482;SDS011;8858;52.308;20.994;2024-02-21T05:32:02;18.60;;;11.40;;
17482;SDS011;8858;52.308;20.994;2024-02-21T05:34:33;21.93;;;11.43;;
17482;SDS011;8858;52.308;20.994;2024-02-21T05:37:02;17.50;;;11.43;;
17482;SDS011;8858;52.308;20.994;2024-02-21T05:39:31;18.30;;;11.30;;
17482;SDS011;8858;52.308;20.994;2024-02-21T05:41:59;22.53;;;12.43;;
17482;SDS011;8858;52.308;20.994;2024-02-21T05:44:27;17.27;;;11.33;;
17482;SDS011;8858;52.308;20.994;2024-02-21T05:46:57;20.33;;;12.00;;
17482;SDS011;8858;52.308;20.994;2024-02-21T05:49:30;21.80;;;12.67;;
17482;SDS011;8858;52.308;20.994;2024-02-21T05:51:59;23.13;;;12.03;;
17482;SDS011;8858;52.308;20.994;2024-02-21T05:54:27;19.83;;;11.93;;
17482;SDS011;8858;52.308;20.994;2024-02-21T05:56:56;21.17;;;11.90;;
17482;SDS011;8858;52.308;20.994;2024-02-21T05:59:24;18.80;;;11.47;;
17482;SDS011;8858;52.308;20.994;2024-02-21T06:01:57;22.27;;;11.90;;
17482;SDS011;8858;52.308;20.994;2024-02-21T06:04:26;18.43;;;11.47;;
17482;SDS011;8858;52.308;20.994;2024-02-21T06:06:56;19.03;;;11.67;;
17482;SDS011;8858;52.308;20.994;2024-02-21T06:09:24;19.53;;;11.60;;
17482;SDS011;8858;52.308;20.994;2024-02-21T06:11:56;22.60;;;12.20;;
17482;SDS011;8858;52.308;20.994;2024-02-21T06:14:28;19.77;;;11.63;;
17482;SDS011;8858;52.308;20.994;2024-02-21T06:16:57;20.53;;;12.43;;
17482;SDS011;8858;52.308;20.994;2024-02-21T06:19:27;26.73;;;13.27;;
17482;SDS011;8858;52.308;20.994;2024-02-21T06:21:55;23.00;;;13.53;;
17482;SDS011;8858;52.308;20.994;2024-02-21T06:24:25;23.47;;;13.33;;
17482;SDS011;8858;52.308;20.994;2024-02-21T06:26:56;20.90;;;13.40;;
17482;SDS011;8858;52.308;20.994;2024-02-21T06:29:25;21.63;;;13.13;;
17482;SDS011;8858;52.308;20.994;2024-02-21T06:31:54;20.07;;;12.87;;
17482;SDS011;8858;52.308;20.994;2024-02-21T06:34:24;23.97;;;13.23;;
17482;SDS011;8858;52.308;20.994;2024-02-21T06:36:56;25.53;;;13.70;;
17482;SDS011;8858;52.308;20.994;2024-02-21T06:39:25;21.60;;;12.10;;
17482;SDS011;8858;52.308;20.994;2024-02-21T06:41:55;23.90;;;12.40;;
17482;SDS011;8858;52.308;20.994;2024-02-21T06:44:32;27.87;;;13.43;;
17482;SDS011;8858;52.308;20.994;2024-02-21T06:47:03;26.43;;;12.80;;
17482;SDS011;8858;52.308;20.994;2024-02-21T06:49:33;27.67;;;12.57;;
17482;SDS011;8858;52.308;20.994;2024-02-21T06:52:01;29.07;;;13.33;;
17482;SDS011;8858;52.308;20.994;2024-02-21T06:54:31;25.57;;;13.03;;
17482;SDS011;8858;52.308;20.994;2024-02-21T06:57:03;20.33;;;12.73;;
17482;SDS011;8858;52.308;20.994;2024-02-21T06:59:31;21.17;;;13.47;;
17482;SDS011;8858;52.308;20.994;2024-02-21T07:02:00;23.07;;;13.60;;
17482;SDS011;8858;52.308;20.994;2024-02-21T07:04:28;24.33;;;13.40;;
17482;SDS011;8858;52.308;20.994;2024-02-21T07:06:59;27.43;;;14.30;;
17482;SDS011;8858;52.308;20.994;2024-02-21T07:09:27;31.57;;;14.40;;
17482;SDS011;8858;52.308;20.994;2024-02-21T07:11:58;26.90;;;13.30;;
17482;SDS011;8858;52.308;20.994;2024-02-21T07:14:27;27.20;;;13.50;;
17482;SDS011;8858;52.308;20.994;2024-02-21T07:16:57;21.07;;;12.60;;
17482;SDS011;8858;52.308;20.994;2024-02-21T07:19:25;24.37;;;13.03;;
17482;SDS011;8858;52.308;20.994;2024-02-21T07:21:54;22.10;;;13.57;;
17482;SDS011;8858;52.308;20.994;2024-02-21T07:24:25;24.23;;;13.60;;
17482;SDS011;8858;52.308;20.994;2024-02-21T07:26:54;21.77;;;13.40;;
17482;SDS011;8858;52.308;20.994;2024-02-21T07:29:22;28.87;;;14.27;;
17482;SDS011;8858;52.308;20.994;2024-02-21T07:31:52;21.67;;;13.00;;
17482;SDS011;8858;52.308;20.994;2024-02-21T07:34:21;25.70;;;13.53;;
17482;SDS011;8858;52.308;20.994;2024-02-21T07:36:49;27.40;;;13.30;;
17482;SDS011;8858;52.308;20.994;2024-02-21T07:39:17;28.27;;;14.23;;
17482;SDS011;8858;52.308;20.994;2024-02-21T07:41:51;25.50;;;12.87;;
17482;SDS011;8858;52.308;20.994;2024-02-21T07:44:22;26.43;;;13.40;;
17482;SDS011;8858;52.308;20.994;2024-02-21T07:46:50;22.90;;;13.97;;
17482;SDS011;8858;52.308;20.994;2024-02-21T07:49:32;25.53;;;13.03;;
17482;SDS011;8858;52.308;20.994;2024-02-21T07:52:00;25.97;;;13.07;;
17482;SDS011;8858;52.308;20.994;2024-02-21T07:54:30;26.83;;;14.67;;
17482;SDS011;8858;52.308;20.994;2024-02-21T07:56:58;27.27;;;13.67;;
17482;SDS011;8858;52.308;20.994;2024-02-21T07:59:27;32.40;;;14.03;;
17482;SDS011;8858;52.308;20.994;2024-02-21T08:01:57;35.10;;;14.80;;
17482;SDS011;8858;52.308;20.994;2024-02-21T08:04:26;33.20;;;14.03;;
17482;SDS011;8858;52.308;20.994;2024-02-21T08:06:56;32.23;;;14.07;;
17482;SDS011;8858;52.308;20.994;2024-02-21T08:09:28;30.57;;;15.17;;
17482;SDS011;8858;52.308;20.994;2024-02-21T08:11:57;30.97;;;15.13;;
17482;SDS011;8858;52.308;20.994;2024-02-21T08:14:26;34.47;;;15.80;;
17482;SDS011;8858;52.308;20.994;2024-02-21T08:16:55;29.63;;;14.23;;
17482;SDS011;8858;52.308;20.994;2024-02-21T08:19:24;29.87;;;15.57;;
17482;SDS011;8858;52.308;20.994;2024-02-21T08:21:54;27.43;;;15.13;;
17482;SDS011;8858;52.308;20.994;2024-02-21T08:24:24;30.03;;;15.53;;
17482;SDS011;8858;52.308;20.994;2024-02-21T08:26:53;28.07;;;15.00;;
17482;SDS011;8858;52.308;20.994;2024-02-21T08:29:22;26.77;;;14.90;;
17482;SDS011;8858;52.308;20.994;2024-02-21T08:31:50;25.63;;;14.63;;
17482;SDS011;8858;52.308;20.994;2024-02-21T08:34:19;32.23;;;14.43;;
17482;SDS011;8858;52.308;20.994;2024-02-21T08:36:50;25.90;;;14.97;;
17482;SDS011;8858;52.308;20.994;2024-02-21T08:39:20;27.27;;;15.70;;
17482;SDS011;8858;52.308;20.994;2024-02-21T08:41:50;30.87;;;15.57;;
17482;SDS011;8858;52.308;20.994;2024-02-21T08:44:24;30.10;;;16.33;;
17482;SDS011;8858;52.308;20.994;2024-02-21T08:46:54;29.97;;;14.90;;
17482;SDS011;8858;52.308;20.994;2024-02-21T08:49:24;32.37;;;15.23;;
17482;SDS011;8858;52.308;20.994;2024-02-21T08:52:00;25.67;;;14.30;;
17482;SDS011;8858;52.308;20.994;2024-02-21T08:54:31;28.87;;;14.63;;
17482;SDS011;8858;52.308;20.994;2024-02-21T08:57:02;31.10;;;15.30;;
17482;SDS011;8858;52.308;20.994;2024-02-21T08:59:35;33.13;;;15.70;;
17482;SDS011;8858;52.308;20.994;2024-02-21T09:02:05;30.17;;;14.67;;
17482;SDS011;8858;52.308;20.994;2024-02-21T09:04:35;26.63;;;14.90;;
17482;SDS011;8858;52.308;20.994;2024-02-21T09:07:04;31.53;;;15.57;;
17482;SDS011;8858;52.308;20.994;2024-02-21T09:09:33;26.50;;;15.03;;
17482;SDS011;8858;52.308;20.994;2024-02-21T09:12:10;32.03;;;16.00;;
17482;SDS011;8858;52.308;20.994;2024-02-21T09:14:41;22.10;;;15.23;;
17482;SDS011;8858;52.308;20.994;2024-02-21T09:17:35;31.77;;;15.13;;
17482;SDS011;8858;52.308;20.994;2024-02-21T09:20:08;28.10;;;15.13;;
17482;SDS011;8858;52.308;20.994;2024-02-21T09:22:39;31.73;;;15.93;;
17482;SDS011;8858;52.308;20.994;2024-02-21T09:25:08;27.90;;;15.00;;
17482;SDS011;8858;52.308;20.994;2024-02-21T09:27:39;27.30;;;14.13;;
17482;SDS011;8858;52.308;20.994;2024-02-21T09:30:09;28.73;;;14.30;;
17482;SDS011;8858;52.308;20.994;2024-02-21T09:32:38;33.10;;;15.70;;
17482;SDS011;8858;52.308;20.994;2024-02-21T09:35:07;27.77;;;15.20;;
17482;SDS011;8858;52.308;20.994;2024-02-21T09:37:37;28.40;;;14.97;;
17482;SDS011;8858;52.308;20.994;2024-02-21T09:40:06;25.50;;;14.90;;
17482;SDS011;8858;52.308;20.994;2024-02-21T09:42:36;30.43;;;15.30;;
17482;SDS011;8858;52.308;20.994;2024-02-21T09:45:14;28.33;;;14.93;;
17482;SDS011;8858;52.308;20.994;2024-02-21T09:47:50;26.97;;;14.30;;
17482;SDS011;8858;52.308;20.994;2024-02-21T09:50:48;25.30;;;13.17;;
17482;SDS011;8858;52.308;20.994;2024-02-21T09:53:17;23.53;;;13.53;;
17482;SDS011;8858;52.308;20.994;2024-02-21T09:55:47;21.97;;;12.60;;
17482;SDS011;8858;52.308;20.994;2024-02-21T09:58:20;23.57;;;12.80;;
17482;SDS011;8858;52.308;20.994;2024-02-21T10:00:52;30.03;;;12.23;;
17482;SDS011;8858;52.308;20.994;2024-02-21T10:03:20;22.20;;;11.47;;
17482;SDS011;8858;52.308;20.994;2024-02-21T10:05:49;25.40;;;13.17;;
17482;SDS011;8858;52.308;20.994;2024-02-21T10:08:18;22.40;;;13.03;;
17482;SDS011;8858;52.308;20.994;2024-02-21T10:10:49;20.43;;;11.30;;
17482;SDS011;8858;52.308;20.994;2024-02-21T10:13:23;17.50;;;10.27;;
17482;SDS011;8858;52.308;20.994;2024-02-21T10:16:04;20.67;;;10.60;;
17482;SDS011;8858;52.308;20.994;2024-02-21T10:18:33;23.10;;;11.07;;
17482;SDS011;8858;52.308;20.994;2024-02-21T10:21:04;24.10;;;10.80;;
17482;SDS011;8858;52.308;20.994;2024-02-21T10:23:45;20.00;;;9.40;;
17482;SDS011;8858;52.308;20.994;2024-02-21T10:26:14;20.20;;;9.20;;
17482;SDS011;8858;52.308;20.994;2024-02-21T10:28:43;20.53;;;9.27;;
17482;SDS011;8858;52.308;20.994;2024-02-21T10:31:22;19.07;;;9.57;;
17482;SDS011;8858;52.308;20.994;2024-02-21T10:33:55;19.97;;;9.60;;
17482;SDS011;8858;52.308;20.994;2024-02-21T10:36:28;22.87;;;9.93;;
17482;SDS011;8858;52.308;20.994;2024-02-21T10:38:57;22.13;;;9.87;;
17482;SDS011;8858;52.308;20.994;2024-02-21T10:41:25;19.60;;;11.33;;
17482;SDS011;8858;52.308;20.994;2024-02-21T10:43:54;22.23;;;10.07;;
17482;SDS011;8858;52.308;20.994;2024-02-21T10:46:24;17.53;;;10.10;;
17482;SDS011;8858;52.308;20.994;2024-02-21T10:49:00;21.30;;;9.80;;
17482;SDS011;8858;52.308;20.994;2024-02-21T10:51:35;19.67;;;9.73;;
17482;SDS011;8858;52.308;20.994;2024-02-21T10:54:13;23.13;;;10.67;;
17482;SDS011;8858;52.308;20.994;2024-02-21T10:56:52;17.93;;;9.73;;
17482;SDS011;8858;52.308;20.994;2024-02-21T10:59:26;20.27;;;10.10;;
17482;SDS011;8858;52.308;20.994;2024-02-21T11:01:58;21.67;;;11.07;;
17482;SDS011;8858;52.308;20.994;2024-02-21T11:04:28;22.30;;;11.13;;
17482;SDS011;8858;52.308;20.994;2024-02-21T11:07:00;22.23;;;10.97;;
17482;SDS011;8858;52.308;20.994;2024-02-21T11:09:35;17.50;;;10.73;;
17482;SDS011;8858;52.308;20.994;2024-02-21T11:12:05;17.20;;;10.83;;
17482;SDS011;8858;52.308;20.994;2024-02-21T11:14:37;21.53;;;11.43;;
17482;SDS011;8858;52.308;20.994;2024-02-21T11:17:16;21.53;;;11.43;;
17482;SDS011;8858;52.308;20.994;2024-02-21T11:19:45;22.83;;;10.90;;
17482;SDS011;8858;52.308;20.994;2024-02-21T11:22:15;22.17;;;12.67;;
17482;SDS011;8858;52.308;20.994;2024-02-21T11:24:45;21.90;;;11.47;;
17482;SDS011;8858;52.308;20.994;2024-02-21T11:27:14;18.50;;;11.03;;
17482;SDS011;8858;52.308;20.994;2024-02-21T11:29:44;21.43;;;12.83;;
17482;SDS011;8858;52.308;20.994;2024-02-21T11:32:14;23.67;;;11.30;;
17482;SDS011;8858;52.308;20.994;2024-02-21T11:34:55;25.37;;;12.80;;
17482;SDS011;8858;52.308;20.994;2024-02-21T11:37:29;21.30;;;12.63;;
17482;SDS011;8858;52.308;20.994;2024-02-21T11:40:00;25.00;;;13.67;;
17482;SDS011;8858;52.308;20.994;2024-02-21T11:42:30;19.77;;;12.27;;
17482;SDS011;8858;52.308;20.994;2024-02-21T11:44:59;22.50;;;13.03;;
17482;SDS011;8858;52.308;20.994;2024-02-21T11:47:29;22.90;;;13.07;;
17482;SDS011;8858;52.308;20.994;2024-02-21T11:49:57;26.70;;;13.23;;
17482;SDS011;8858;52.308;20.994;2024-02-21T11:52:27;30.93;;;13.93;;
17482;SDS011;8858;52.308;20.994;2024-02-21T11:54:57;21.93;;;12.80;;
17482;SDS011;8858;52.308;20.994;2024-02-21T11:57:32;21.53;;;12.67;;
17482;SDS011;8858;52.308;20.994;2024-02-21T12:00:26;23.93;;;12.70;;
17482;SDS011;8858;52.308;20.994;2024-02-21T12:02:56;23.17;;;12.80;;
17482;SDS011;8858;52.308;20.994;2024-02-21T12:05:30;24.90;;;13.30;;
17482;SDS011;8858;52.308;20.994;2024-02-21T12:07:59;25.00;;;13.10;;
17482;SDS011;8858;52.308;20.994;2024-02-21T12:10:28;22.87;;;13.03;;
17482;SDS011;8858;52.308;20.994;2024-02-21T12:13:04;30.10;;;13.27;;
17482;SDS011;8858;52.308;20.994;2024-02-21T12:15:34;19.43;;;12.00;;
17482;SDS011;8858;52.308;20.994;2024-02-21T12:18:04;24.63;;;13.37;;
17482;SDS011;8858;52.308;20.994;2024-02-21T12:20:36;23.30;;;12.43;;
17482;SDS011;8858;52.308;20.994;2024-02-21T12:23:08;20.77;;;12.60;;
17482;SDS011;8858;52.308;20.994;2024-02-21T12:25:38;18.73;;;12.10;;
17482;SDS011;8858;52.308;20.994;2024-02-21T12:28:07;29.83;;;14.10;;
17482;SDS011;8858;52.308;20.994;2024-02-21T12:30:36;24.47;;;12.90;;
17482;SDS011;8858;52.308;20.994;2024-02-21T12:33:08;21.93;;;13.27;;
17482;SDS011;8858;52.308;20.994;2024-02-21T12:35:36;20.97;;;12.83;;
17482;SDS011;8858;52.308;20.994;2024-02-21T12:38:05;25.20;;;13.17;;
17482;SDS011;8858;52.308;20.994;2024-02-21T12:40:33;24.60;;;13.53;;
17482;SDS011;8858;52.308;20.994;2024-02-21T12:43:02;24.83;;;13.23;;
17482;SDS011;8858;52.308;20.994;2024-02-21T12:45:32;23.70;;;13.60;;
17482;SDS011;8858;52.308;20.994;2024-02-21T12:48:01;21.17;;;12.80;;
17482;SDS011;8858;52.308;20.994;2024-02-21T12:50:32;23.40;;;12.47;;
17482;SDS011;8858;52.308;20.994;2024-02-21T12:53:02;20.60;;;12.60;;
17482;SDS011;8858;52.308;20.994;2024-02-21T12:55:42;24.83;;;13.13;;
17482;SDS011;8858;52.308;20.994;2024-02-21T12:58:10;17.97;;;12.10;;
17482;SDS011;8858;52.308;20.994;2024-02-21T13:00:40;24.87;;;13.10;;
17482;SDS011;8858;52.308;20.994;2024-02-21T13:03:11;18.40;;;11.37;;
17482;SDS011;8858;52.308;20.994;2024-02-21T13:05:41;16.73;;;11.17;;
17482;SDS011;8858;52.308;20.994;2024-02-21T13:08:10;20.57;;;11.60;;
17482;SDS011;8858;52.308;20.994;2024-02-21T13:10:39;24.37;;;12.50;;
17482;SDS011;8858;52.308;20.994;2024-02-21T13:13:07;21.13;;;13.10;;
17482;SDS011;8858;52.308;20.994;2024-02-21T13:15:36;19.50;;;12.33;;
17482;SDS011;8858;52.308;20.994;2024-02-21T13:18:10;24.43;;;12.80;;
17482;SDS011;8858;52.308;20.994;2024-02-21T13:20:38;21.13;;;12.53;;
17482;SDS011;8858;52.308;20.994;2024-02-21T13:23:09;23.77;;;12.37;;
17482;SDS011;8858;52.308;20.994;2024-02-21T13:25:38;21.10;;;12.20;;
17482;SDS011;8858;52.308;20.994;2024-02-21T13:28:06;23.63;;;13.03;;
17482;SDS011;8858;52.308;20.994;2024-02-21T13:30:36;24.37;;;12.77;;
17482;SDS011;8858;52.308;20.994;2024-02-21T13:33:05;21.63;;;12.17;;
17482;SDS011;8858;52.308;20.994;2024-02-21T13:35:35;24.50;;;14.00;;
17482;SDS011;8858;52.308;20.994;2024-02-21T13:38:06;22.43;;;12.37;;
17482;SDS011;8858;52.308;20.994;2024-02-21T13:40:37;25.23;;;12.90;;
17482;SDS011;8858;52.308;20.994;2024-02-21T13:43:06;22.87;;;12.20;;
17482;SDS011;8858;52.308;20.994;2024-02-21T13:45:40;16.13;;;11.63;;
17482;SDS011;8858;52.308;20.994;2024-02-21T13:48:11;27.27;;;12.37;;
17482;SDS011;8858;52.308;20.994;2024-02-21T13:50:42;23.10;;;12.13;;
17482;SDS011;8858;52.308;20.994;2024-02-21T13:53:10;22.33;;;11.80;;
17482;SDS011;8858;52.308;20.994;2024-02-21T13:55:40;19.47;;;11.50;;
17482;SDS011;8858;52.308;20.994;2024-02-21T13:58:10;19.90;;;12.43;;
17482;SDS011;8858;52.308;20.994;2024-02-21T14:00:38;16.57;;;12.10;;
17482;SDS011;8858;52.308;20.994;2024-02-21T14:03:07;21.40;;;11.53;;
17482;SDS011;8858;52.308;20.994;2024-02-21T14:05:37;23.87;;;11.60;;
17482;SDS011;8858;52.308;20.994;2024-02-21T14:08:09;20.80;;;11.50;;
17482;SDS011;8858;52.308;20.994;2024-02-21T14:10:37;18.33;;;10.37;;
17482;SDS011;8858;52.308;20.994;2024-02-21T14:13:07;16.87;;;10.07;;
17482;SDS011;8858;52.308;20.994;2024-02-21T14:15:35;20.87;;;11.20;;
17482;SDS011;8858;52.308;20.994;2024-02-21T14:18:07;20.27;;;10.17;;
17482;SDS011;8858;52.308;20.994;2024-02-21T14:20:36;18.73;;;10.27;;
17482;SDS011;8858;52.308;20.994;2024-02-21T14:23:05;18.57;;;9.00;;
17482;SDS011;8858;52.308;20.994;2024-02-21T14:25:33;19.13;;;9.83;;
17482;SDS011;8858;52.308;20.994;2024-02-21T14:28:02;19.87;;;9.60;;
17482;SDS011;8858;52.308;20.994;2024-02-21T14:30:32;14.57;;;9.37;;
17482;SDS011;8858;52.308;20.994;2024-02-21T14:33:00;18.00;;;9.47;;
17482;SDS011;8858;52.308;20.994;2024-02-21T14:35:30;16.27;;;10.27;;
17482;SDS011;8858;52.308;20.994;2024-02-21T14:38:02;17.40;;;9.03;;
17482;SDS011;8858;52.308;20.994;2024-02-21T14:40:30;20.33;;;9.73;;
17482;SDS011;8858;52.308;20.994;2024-02-21T14:43:01;17.53;;;8.70;;
17482;SDS011;8858;52.308;20.994;2024-02-21T14:45:29;15.83;;;8.03;;
17482;SDS011;8858;52.308;20.994;2024-02-21T14:47:59;19.13;;;8.43;;